Terminal Aerodrome Forecast
Issued by NWS Charleston, WV

Current Version | Previous Version | Graphics & Text | Print | Product List | Glossary On
Versions: 1 2 3 4 5 6 7 8 9 10 11 12 13 14 15 16 17 18 19 20 21 22 23
470
FTUS41 KRLX 102320
TAFCRW
TAF
KCRW 102320Z 1100/1124 26010KT P6SM -SHSN BKN025
     FM110200 27009KT P6SM BKN030
     FM111200 28006KT P6SM BKN035
     FM111800 29006KT P6SM SCT040=

USA.gov is the U.S. government's official web portal to all federal, state and local government web resources and services.